METAR Data
IDs: Format: Raw Decoded Include TAF

Data at: 0104 UTC 20 Jul 2019

METAR for:KOLZ (Oelwein Muni, IA, US)
Text:KOLZ 200055Z AUTO 19010KT 10SM CLR 31/29 A2972 RMK A01
Temperature: 31.0°C ( 88°F)
Dewpoint: 29.0°C ( 84°F) [RH = 89%]
Pressure (altimeter):29.72 inches Hg (1006.5 mb)
Winds:from the S (190 degrees) at 12 MPH (10 knots; 5.1 m/s)
Visibility:10 or more sm (16+ km)
Ceiling:at least 12,000 feet AGL
Clouds:sky clear below 12,000 feet AGL
QC Flag:automated observation with no human augmentation